Time;durP1;ratioP1;P1;durP2;ratioP2;P2;SDS_P1;SDS_P2;PMS_P1;PMS_P2;Temp;Humidity;BMP_temperature;BMP_pressure;BME280_temperature;BME280_humidity;BME280_pressure;Samples;Min_cycle;Max_cycle;Signal;HPM_P1;HPM_P2
2023/03/13 00:01:30;;;;;;;24.40;3.88;;;;;;;;;;6299969;22;20111;-80
2023/03/13 00:03:56;;;;;;;23.33;4.07;;;;;;;;;;6297872;22;20034;-80
2023/03/13 00:06:24;;;;;;;26.13;4.38;;;;;;;;;;6272169;22;20498;-80
2023/03/13 00:08:50;;;;;;;24.63;5.32;;;;;;;;;;6299240;22;20031;-80
2023/03/13 00:11:17;;;;;;;22.35;4.15;;;;;;;;;;6299630;22;20960;-80
2023/03/13 00:13:43;;;;;;;24.30;4.70;;;;;;;;;;6271495;22;20020;-80
2023/03/13 00:16:11;;;;;;;17.55;4.25;;;;;;;;;;6299070;22;20027;-80
2023/03/13 00:18:38;;;;;;;22.42;4.90;;;;;;;;;;6272153;22;20097;-80
2023/03/13 00:21:07;;;;;;;23.17;4.00;;;;;;;;;;6299903;22;20031;-80
2023/03/13 00:23:36;;;;;;;21.93;3.73;;;;;;;;;;6270416;22;20416;-80
2023/03/13 00:26:07;;;;;;;15.60;3.70;;;;;;;;;;6299993;22;20038;-80
2023/03/13 00:28:34;;;;;;;24.65;4.55;;;;;;;;;;6300448;22;20020;-80
2023/03/13 00:31:04;;;;;;;20.65;4.25;;;;;;;;;;6299902;22;20038;-80
2023/03/13 00:33:31;;;;;;;32.50;4.47;;;;;;;;;;6298010;22;20023;-81
2023/03/13 00:36:02;;;;;;;18.27;4.07;;;;;;;;;;6272447;22;20138;-80
2023/03/13 00:38:29;;;;;;;28.70;4.65;;;;;;;;;;6301074;22;20028;-80
2023/03/13 00:41:02;;;;;;;28.90;4.55;;;;;;;;;;6272251;22;20071;-80
2023/03/13 00:43:29;;;;;;;28.27;4.78;;;;;;;;;;6299768;22;20106;-80
2023/03/13 00:45:55;;;;;;;28.77;4.32;;;;;;;;;;6299686;22;20078;-80
2023/03/13 00:48:22;;;;;;;23.20;4.55;;;;;;;;;;6300769;22;20024;-80
2023/03/13 00:50:48;;;;;;;22.35;4.72;;;;;;;;;;6300272;22;20024;-80
2023/03/13 00:53:15;;;;;;;26.65;4.68;;;;;;;;;;6298515;22;20027;-81
2023/03/13 00:55:51;;;;;;;23.15;5.03;;;;;;;;;;6299891;22;20023;-80
2023/03/13 00:58:17;;;;;;;31.20;4.95;;;;;;;;;;6299451;22;20031;-80
2023/03/13 01:00:44;;;;;;;37.17;4.95;;;;;;;;;;6299429;22;20020;-80
2023/03/13 01:03:10;;;;;;;23.73;4.75;;;;;;;;;;6298623;22;20081;-80
2023/03/13 01:05:36;;;;;;;22.85;5.10;;;;;;;;;;6300970;22;20027;-81
2023/03/13 01:08:03;;;;;;;29.17;5.93;;;;;;;;;;6301065;22;20886;-81
2023/03/13 01:10:29;;;;;;;24.58;4.60;;;;;;;;;;6299640;22;20062;-80
2023/03/13 01:12:56;;;;;;;22.80;4.60;;;;;;;;;;6297943;22;20023;-80
2023/03/13 01:15:23;;;;;;;23.20;4.63;;;;;;;;;;6299640;22;20055;-81
2023/03/13 01:17:49;;;;;;;26.17;4.22;;;;;;;;;;6272851;22;20550;-80
2023/03/13 01:20:15;;;;;;;28.75;5.28;;;;;;;;;;6299689;22;20023;-80
2023/03/13 01:22:42;;;;;;;23.35;4.82;;;;;;;;;;6298003;22;20543;-80
2023/03/13 01:25:08;;;;;;;19.27;4.00;;;;;;;;;;6271206;22;20027;-80
2023/03/13 01:27:35;;;;;;;19.63;4.75;;;;;;;;;;6300137;22;20533;-80
2023/03/13 01:30:01;;;;;;;25.92;4.60;;;;;;;;;;6299466;22;20466;-80
2023/03/13 01:32:27;;;;;;;24.75;5.50;;;;;;;;;;6299305;22;20896;-80
2023/03/13 01:34:54;;;;;;;14.50;4.68;;;;;;;;;;6298614;22;20035;-80
2023/03/13 01:37:20;;;;;;;25.50;4.75;;;;;;;;;;6298144;22;20038;-81
2023/03/13 01:39:47;;;;;;;22.02;4.80;;;;;;;;;;6271414;22;21394;-81
2023/03/13 01:42:13;;;;;;;17.77;4.45;;;;;;;;;;6299976;22;20724;-80
2023/03/13 01:44:48;;;;;;;19.85;4.68;;;;;;;;;;6299357;22;20032;-80
2023/03/13 01:47:15;;;;;;;17.90;4.22;;;;;;;;;;6273042;22;20467;-80
2023/03/13 01:49:41;;;;;;;19.75;4.40;;;;;;;;;;6300378;22;20034;-81
2023/03/13 01:52:11;;;;;;;22.85;4.97;;;;;;;;;;6300449;22;20102;-80
2023/03/13 01:54:40;;;;;;;19.85;4.15;;;;;;;;;;6299536;22;20030;-79
2023/03/13 01:57:14;;;;;;;15.88;3.83;;;;;;;;;;6299792;22;20063;-80
2023/03/13 01:59:42;;;;;;;13.38;4.20;;;;;;;;;;6300471;22;20031;-80
2023/03/13 02:02:10;;;;;;;13.25;4.30;;;;;;;;;;6299948;22;20035;-80
2023/03/13 02:04:42;;;;;;;16.55;4.85;;;;;;;;;;6301733;22;20015;-80
2023/03/13 02:07:17;;;;;;;21.33;4.85;;;;;;;;;;6301505;22;20075;-81
2023/03/13 02:09:48;;;;;;;16.52;4.18;;;;;;;;;;6303002;22;20046;-80
2023/03/13 02:12:17;;;;;;;19.85;5.03;;;;;;;;;;6301943;22;20094;-80
2023/03/13 02:14:44;;;;;;;14.95;5.00;;;;;;;;;;6300768;22;20020;-81
2023/03/13 02:17:10;;;;;;;16.20;5.07;;;;;;;;;;6300957;22;21446;-80
2023/03/13 02:19:41;;;;;;;18.23;5.22;;;;;;;;;;6275838;22;20024;-81
2023/03/13 02:22:16;;;;;;;15.95;4.97;;;;;;;;;;6304231;22;20077;-81
2023/03/13 02:24:57;;;;;;;18.27;5.55;;;;;;;;;;6300130;22;20024;-81
2023/03/13 02:27:23;;;;;;;21.23;5.72;;;;;;;;;;6302981;22;20031;-81
2023/03/13 02:29:50;;;;;;;15.90;5.32;;;;;;;;;;6303253;22;20559;-81
2023/03/13 02:32:16;;;;;;;17.10;6.07;;;;;;;;;;6302589;22;20028;-81
2023/03/13 02:34:46;;;;;;;16.45;5.82;;;;;;;;;;6300446;22;20946;-80
2023/03/13 02:37:13;;;;;;;19.02;6.18;;;;;;;;;;6300683;22;20024;-81
2023/03/13 02:39:42;;;;;;;16.92;5.75;;;;;;;;;;6273763;22;20022;-80
2023/03/13 02:42:08;;;;;;;18.90;6.40;;;;;;;;;;6300968;22;20099;-81
2023/03/13 02:44:38;;;;;;;18.38;6.55;;;;;;;;;;6300672;22;20023;-81
2023/03/13 02:47:04;;;;;;;17.30;6.82;;;;;;;;;;6299651;22;20019;-81
2023/03/13 02:49:31;;;;;;;23.35;6.68;;;;;;;;;;6302829;22;20024;-81
2023/03/13 02:52:16;;;;;;;23.55;7.47;;;;;;;;;;6302945;22;20551;-81
2023/03/13 02:54:43;;;;;;;26.95;7.43;;;;;;;;;;6301086;22;20047;-82
2023/03/13 02:57:10;;;;;;;23.67;8.20;;;;;;;;;;6301301;22;20050;-81
2023/03/13 02:59:36;;;;;;;19.13;7.65;;;;;;;;;;6301657;22;20084;-82
2023/03/13 03:02:03;;;;;;;20.02;8.50;;;;;;;;;;6302659;22;20031;-81
2023/03/13 03:04:29;;;;;;;21.13;9.15;;;;;;;;;;6300738;22;20016;-81
2023/03/13 03:06:56;;;;;;;26.00;8.18;;;;;;;;;;6302103;22;20338;-82
2023/03/13 03:09:23;;;;;;;21.58;8.85;;;;;;;;;;6275665;22;20983;-81
2023/03/13 03:11:49;;;;;;;25.45;8.93;;;;;;;;;;6302431;22;20028;-81
2023/03/13 03:14:15;;;;;;;22.88;8.23;;;;;;;;;;6300149;22;20984;-81
2023/03/13 03:16:42;;;;;;;22.15;8.38;;;;;;;;;;6302148;22;20023;-82
2023/03/13 03:19:09;;;;;;;20.90;9.05;;;;;;;;;;6302548;22;20020;-82
2023/03/13 03:21:36;;;;;;;24.15;8.45;;;;;;;;;;6274536;22;20088;-82
2023/03/13 03:24:03;;;;;;;21.45;9.07;;;;;;;;;;6301045;22;20111;-81
2023/03/13 03:26:29;;;;;;;18.80;8.68;;;;;;;;;;6303486;22;20023;-82
2023/03/13 03:28:56;;;;;;;20.90;8.90;;;;;;;;;;6303367;22;20019;-81
2023/03/13 03:31:22;;;;;;;24.95;9.50;;;;;;;;;;6302864;22;20081;-82
2023/03/13 03:33:49;;;;;;;25.10;10.00;;;;;;;;;;6300503;22;20058;-82
2023/03/13 03:36:16;;;;;;;19.20;9.55;;;;;;;;;;6301909;22;20457;-81
2023/03/13 03:38:43;;;;;;;22.08;9.52;;;;;;;;;;6300239;22;20027;-81
2023/03/13 03:41:10;;;;;;;24.70;10.02;;;;;;;;;;6300096;22;20031;-82
2023/03/13 03:43:37;;;;;;;25.10;9.88;;;;;;;;;;6274469;22;20028;-82
2023/03/13 03:46:03;;;;;;;23.48;9.90;;;;;;;;;;6301343;22;20448;-82
2023/03/13 03:48:30;;;;;;;20.55;9.57;;;;;;;;;;6303065;22;20846;-81
2023/03/13 03:50:56;;;;;;;22.48;9.93;;;;;;;;;;6303985;22;20106;-84
2023/03/13 03:53:23;;;;;;;23.50;10.20;;;;;;;;;;6302086;22;20461;-85
2023/03/13 03:55:49;;;;;;;22.35;9.98;;;;;;;;;;6302641;22;20111;-84
2023/03/13 03:58:16;;;;;;;24.92;9.13;;;;;;;;;;6302815;22;20115;-84
2023/03/13 04:00:43;;;;;;;22.23;9.43;;;;;;;;;;6274793;22;20031;-84
2023/03/13 04:03:10;;;;;;;23.60;9.15;;;;;;;;;;6301255;22;20107;-84
2023/03/13 04:05:37;;;;;;;19.05;8.98;;;;;;;;;;6303214;22;20510;-84
2023/03/13 04:08:03;;;;;;;18.00;8.65;;;;;;;;;;6302375;22;20019;-84
2023/03/13 04:10:30;;;;;;;21.55;9.00;;;;;;;;;;6302971;22;20906;-84
2023/03/13 04:12:56;;;;;;;15.55;8.23;;;;;;;;;;6300863;22;20035;-84
2023/03/13 04:15:23;;;;;;;17.42;7.22;;;;;;;;;;6276172;22;20052;-84
2023/03/13 04:17:49;;;;;;;15.35;6.65;;;;;;;;;;6302821;22;20019;-84
2023/03/13 04:20:15;;;;;;;18.48;7.88;;;;;;;;;;6303689;22;20020;-84
2023/03/13 04:22:42;;;;;;;15.63;7.40;;;;;;;;;;6274065;22;20035;-84
2023/03/13 04:25:08;;;;;;;18.33;7.28;;;;;;;;;;6301913;22;20046;-84
2023/03/13 04:27:35;;;;;;;17.95;7.80;;;;;;;;;;6304051;22;20020;-85
2023/03/13 04:30:02;;;;;;;13.38;6.88;;;;;;;;;;6301800;22;20111;-85
2023/03/13 04:32:29;;;;;;;15.43;6.68;;;;;;;;;;6302977;22;20028;-84
2023/03/13 04:34:55;;;;;;;18.10;6.88;;;;;;;;;;6299549;22;20027;-85
2023/03/13 04:37:21;;;;;;;20.38;6.90;;;;;;;;;;6275153;22;20178;-85
2023/03/13 04:39:48;;;;;;;18.08;7.20;;;;;;;;;;6302730;22;20019;-84
2023/03/13 04:42:14;;;;;;;15.10;6.20;;;;;;;;;;6303428;22;20111;-85
2023/03/13 04:44:41;;;;;;;13.15;6.82;;;;;;;;;;6300017;22;20024;-83
2023/03/13 04:47:09;;;;;;;15.18;6.53;;;;;;;;;;6301173;22;20028;-84
2023/03/13 04:49:35;;;;;;;19.30;5.90;;;;;;;;;;6275074;22;20407;-84
2023/03/13 04:52:01;;;;;;;12.27;6.57;;;;;;;;;;6302391;22;20031;-84
2023/03/13 04:54:28;;;;;;;12.38;5.32;;;;;;;;;;6300277;22;20030;-84
2023/03/13 04:56:54;;;;;;;12.85;5.68;;;;;;;;;;6301555;22;20023;-84
2023/03/13 04:59:20;;;;;;;12.30;5.70;;;;;;;;;;6300856;22;20454;-82
2023/03/13 05:01:47;;;;;;;15.43;4.90;;;;;;;;;;6274834;22;20031;-82
2023/03/13 05:04:13;;;;;;;11.98;5.20;;;;;;;;;;6300180;22;20038;-81
2023/03/13 05:06:39;;;;;;;10.45;4.68;;;;;;;;;;6273353;22;20031;-81
2023/03/13 05:09:06;;;;;;;11.98;4.60;;;;;;;;;;6274527;22;20034;-82
2023/03/13 05:11:32;;;;;;;13.38;4.85;;;;;;;;;;6302288;22;20063;-81
2023/03/13 05:13:59;;;;;;;11.65;4.43;;;;;;;;;;6298713;22;20035;-81
2023/03/13 05:16:25;;;;;;;8.25;3.88;;;;;;;;;;6300224;22;20063;-82
2023/03/13 05:18:51;;;;;;;12.18;4.32;;;;;;;;;;6306296;22;20110;-84
2023/03/13 05:21:18;;;;;;;7.75;4.00;;;;;;;;;;6302036;22;20075;-84
2023/03/13 05:23:44;;;;;;;9.60;4.18;;;;;;;;;;6300132;22;20038;-84
2023/03/13 05:26:10;;;;;;;9.30;4.35;;;;;;;;;;6302061;22;20153;-85
2023/03/13 05:28:37;;;;;;;8.15;4.10;;;;;;;;;;6273089;22;20023;-85
2023/03/13 05:31:03;;;;;;;10.25;3.85;;;;;;;;;;6301886;22;20024;-85
2023/03/13 05:33:30;;;;;;;10.40;4.05;;;;;;;;;;6273959;22;20106;-84
2023/03/13 05:35:56;;;;;;;7.88;3.40;;;;;;;;;;6300848;22;20034;-83
2023/03/13 05:38:22;;;;;;;10.18;3.42;;;;;;;;;;6300327;22;20054;-82
2023/03/13 05:40:49;;;;;;;10.43;3.35;;;;;;;;;;6273924;22;20024;-83
2023/03/13 05:43:15;;;;;;;9.65;3.58;;;;;;;;;;6300824;22;20032;-83
2023/03/13 05:45:41;;;;;;;9.02;3.05;;;;;;;;;;6300663;22;20030;-82
2023/03/13 05:48:08;;;;;;;10.40;3.83;;;;;;;;;;6301292;22;20028;-82
2023/03/13 05:50:34;;;;;;;17.73;3.80;;;;;;;;;;6301830;22;20026;-81
2023/03/13 05:53:01;;;;;;;10.73;3.17;;;;;;;;;;6300434;22;20030;-82
2023/03/13 05:55:27;;;;;;;13.38;3.63;;;;;;;;;;6298659;22;20131;-82
2023/03/13 05:57:53;;;;;;;9.73;3.17;;;;;;;;;;6301023;22;20471;-82
2023/03/13 06:00:20;;;;;;;8.73;3.08;;;;;;;;;;6298831;22;20024;-82
2023/03/13 06:02:46;;;;;;;11.00;2.65;;;;;;;;;;6298446;22;20028;-82
2023/03/13 06:05:12;;;;;;;11.98;2.85;;;;;;;;;;6300334;22;20028;-82
2023/03/13 06:07:39;;;;;;;6.72;2.67;;;;;;;;;;6272038;22;20047;-83
2023/03/13 06:10:05;;;;;;;11.25;3.10;;;;;;;;;;6301430;22;20030;-82
2023/03/13 06:12:32;;;;;;;9.02;3.00;;;;;;;;;;6300837;22;20023;-81
2023/03/13 06:14:58;;;;;;;7.63;3.25;;;;;;;;;;6300256;22;20032;-81
2023/03/13 06:17:24;;;;;;;9.25;3.97;;;;;;;;;;6301947;22;20077;-82
2023/03/13 06:19:51;;;;;;;9.52;3.33;;;;;;;;;;6274629;22;20032;-81
2023/03/13 06:22:17;;;;;;;6.53;3.30;;;;;;;;;;6301894;22;20024;-81
2023/03/13 06:24:45;;;;;;;11.85;3.38;;;;;;;;;;6273015;22;20030;-81
2023/03/13 06:27:12;;;;;;;9.60;3.42;;;;;;;;;;6275859;22;20031;-82
2023/03/13 06:29:38;;;;;;;11.07;3.38;;;;;;;;;;6276258;22;20739;-82
2023/03/13 06:32:04;;;;;;;11.23;3.13;;;;;;;;;;6302008;22;20086;-84
2023/03/13 06:34:31;;;;;;;9.40;3.70;;;;;;;;;;6272229;22;20008;-82
2023/03/13 06:36:59;;;;;;;7.93;3.10;;;;;;;;;;6300388;22;20031;-83
2023/03/13 06:39:25;;;;;;;8.52;3.00;;;;;;;;;;6302292;22;20019;-83
2023/03/13 06:41:52;;;;;;;7.72;2.92;;;;;;;;;;6300369;22;20039;-84
2023/03/13 06:44:18;;;;;;;8.32;2.83;;;;;;;;;;6298941;22;20027;-82
2023/03/13 06:46:44;;;;;;;7.25;3.03;;;;;;;;;;6301065;22;20111;-82
2023/03/13 06:49:10;;;;;;;12.93;3.10;;;;;;;;;;6300288;22;20019;-82
2023/03/13 06:51:37;;;;;;;11.13;3.13;;;;;;;;;;6301713;22;20026;-83
2023/03/13 06:54:03;;;;;;;11.38;3.40;;;;;;;;;;6299939;22;20032;-82
2023/03/13 06:56:31;;;;;;;10.77;2.80;;;;;;;;;;6300770;22;20023;-83
2023/03/13 06:58:57;;;;;;;8.95;2.83;;;;;;;;;;6273074;22;20030;-83
2023/03/13 07:01:25;;;;;;;9.70;3.00;;;;;;;;;;6299081;22;20035;-82
2023/03/13 07:03:51;;;;;;;7.38;2.90;;;;;;;;;;6299879;22;20055;-82
2023/03/13 07:06:18;;;;;;;8.55;3.00;;;;;;;;;;6299185;22;20034;-83
2023/03/13 07:08:44;;;;;;;9.57;2.90;;;;;;;;;;6300536;22;20034;-83
2023/03/13 07:11:12;;;;;;;8.90;2.65;;;;;;;;;;6301232;22;20024;-83
2023/03/13 07:13:38;;;;;;;13.52;2.83;;;;;;;;;;6301606;22;20062;-85
2023/03/13 07:16:06;;;;;;;11.82;3.05;;;;;;;;;;6300450;22;20020;-82
2023/03/13 07:18:33;;;;;;;12.52;3.30;;;;;;;;;;6301630;22;20454;-82
2023/03/13 07:21:00;;;;;;;8.35;2.42;;;;;;;;;;6300403;22;20028;-83
2023/03/13 07:23:28;;;;;;;10.50;3.15;;;;;;;;;;6299443;22;20523;-83
2023/03/13 07:25:58;;;;;;;5.72;2.45;;;;;;;;;;6299901;22;20023;-82
2023/03/13 07:28:25;;;;;;;8.27;2.22;;;;;;;;;;6300864;22;20424;-83
2023/03/13 07:30:52;;;;;;;6.53;2.83;;;;;;;;;;6300078;22;20846;-83
2023/03/13 07:33:18;;;;;;;9.93;2.90;;;;;;;;;;6299406;22;20030;-83
2023/03/13 07:35:49;;;;;;;12.82;3.17;;;;;;;;;;6272621;22;20026;-83
2023/03/13 07:38:16;;;;;;;6.63;2.85;;;;;;;;;;6299421;22;20031;-82
2023/03/13 07:40:51;;;;;;;6.72;2.95;;;;;;;;;;6300604;22;20032;-83
2023/03/13 07:43:17;;;;;;;12.25;3.50;;;;;;;;;;6271431;22;20030;-82
2023/03/13 07:45:54;;;;;;;10.45;3.40;;;;;;;;;;6298754;22;20059;-83
2023/03/13 07:48:21;;;;;;;9.52;3.15;;;;;;;;;;6271560;22;20058;-84
2023/03/13 07:50:48;;;;;;;8.25;3.72;;;;;;;;;;6298861;22;20059;-83
2023/03/13 07:53:20;;;;;;;10.20;3.33;;;;;;;;;;6298295;22;20114;-82
2023/03/13 07:55:52;;;;;;;12.40;3.47;;;;;;;;;;6271604;22;20081;-83
2023/03/13 07:58:19;;;;;;;13.70;3.80;;;;;;;;;;6271738;22;20090;-83
2023/03/13 08:00:45;;;;;;;8.38;3.40;;;;;;;;;;6298900;22;20115;-83
2023/03/13 08:03:12;;;;;;;7.00;3.20;;;;;;;;;;6297470;22;20073;-83
2023/03/13 08:05:38;;;;;;;11.30;3.40;;;;;;;;;;6271723;22;20476;-84
2023/03/13 08:08:04;;;;;;;10.90;3.20;;;;;;;;;;6299502;22;20038;-84
2023/03/13 08:10:31;;;;;;;9.35;3.42;;;;;;;;;;6300060;22;20024;-83
2023/03/13 08:12:58;;;;;;;9.25;3.17;;;;;;;;;;6271105;22;20452;-83
2023/03/13 08:15:25;;;;;;;10.52;3.00;;;;;;;;;;6270378;22;20032;-84
2023/03/13 08:17:51;;;;;;;7.97;3.03;;;;;;;;;;6300419;22;20472;-83
2023/03/13 08:20:18;;;;;;;11.75;3.50;;;;;;;;;;6271559;22;20503;-83
2023/03/13 08:22:49;;;;;;;9.13;3.72;;;;;;;;;;6271739;22;20134;-85
2023/03/13 08:25:17;;;;;;;9.70;2.92;;;;;;;;;;6271868;22;20023;-84
2023/03/13 08:27:43;;;;;;;10.82;3.03;;;;;;;;;;6298844;22;20051;-84
2023/03/13 08:30:10;;;;;;;11.70;3.30;;;;;;;;;;6299078;22;20030;-84
2023/03/13 08:32:36;;;;;;;12.82;3.05;;;;;;;;;;6299897;22;20023;-85
2023/03/13 08:35:03;;;;;;;16.13;4.35;;;;;;;;;;6298305;22;20028;-84
2023/03/13 08:37:30;;;;;;;12.82;3.75;;;;;;;;;;6299809;22;20039;-84
2023/03/13 08:39:56;;;;;;;10.63;3.05;;;;;;;;;;6299484;22;20103;-83
2023/03/13 08:42:22;;;;;;;9.93;3.10;;;;;;;;;;6299243;22;20083;-83
2023/03/13 08:44:49;;;;;;;7.43;2.42;;;;;;;;;;6298685;22;20032;-83
2023/03/13 08:47:17;;;;;;;6.72;2.30;;;;;;;;;;6299225;22;20032;-84
2023/03/13 08:49:43;;;;;;;6.18;2.38;;;;;;;;;;6299525;22;20023;-83
2023/03/13 08:52:10;;;;;;;7.00;2.50;;;;;;;;;;6300539;22;20103;-83
2023/03/13 08:54:36;;;;;;;7.85;2.60;;;;;;;;;;6298016;22;20042;-83
2023/03/13 08:57:02;;;;;;;8.35;2.67;;;;;;;;;;6299079;22;20457;-84
2023/03/13 08:59:29;;;;;;;6.80;2.33;;;;;;;;;;6299140;22;20106;-84
2023/03/13 09:01:56;;;;;;;10.02;2.45;;;;;;;;;;6270940;22;20027;-83
2023/03/13 09:04:22;;;;;;;8.13;2.70;;;;;;;;;;6298260;22;20024;-82
2023/03/13 09:06:48;;;;;;;5.45;2.10;;;;;;;;;;6299306;22;20015;-83
2023/03/13 09:09:15;;;;;;;5.78;2.13;;;;;;;;;;6299458;22;20104;-83
2023/03/13 09:11:41;;;;;;;6.72;2.38;;;;;;;;;;6277435;22;20054;-82
2023/03/13 09:14:09;;;;;;;7.80;1.95;;;;;;;;;;6304680;22;20054;-84
2023/03/13 09:16:36;;;;;;;8.40;2.38;;;;;;;;;;6301493;22;20067;-84
2023/03/13 09:19:03;;;;;;;9.40;2.47;;;;;;;;;;6299219;22;20142;-83
2023/03/13 09:21:30;;;;;;;6.35;1.80;;;;;;;;;;6299846;22;20098;-83
2023/03/13 09:23:57;;;;;;;5.47;1.77;;;;;;;;;;6270480;22;20019;-82
2023/03/13 09:26:24;;;;;;;7.38;1.92;;;;;;;;;;6298978;22;20028;-84
2023/03/13 09:28:51;;;;;;;6.88;1.95;;;;;;;;;;6271332;22;20031;-83
2023/03/13 09:31:28;;;;;;;7.97;2.15;;;;;;;;;;6300050;22;21045;-83
2023/03/13 09:33:55;;;;;;;6.88;2.30;;;;;;;;;;6271236;22;20028;-84
2023/03/13 09:36:22;;;;;;;6.97;1.40;;;;;;;;;;6299771;22;20062;-82
2023/03/13 09:38:53;;;;;;;6.97;1.60;;;;;;;;;;6301619;22;20102;-83
2023/03/13 09:41:23;;;;;;;7.63;1.55;;;;;;;;;;6299910;22;20032;-85
2023/03/13 09:43:53;;;;;;;4.53;1.10;;;;;;;;;;6272502;22;20020;-84
2023/03/13 09:46:22;;;;;;;10.95;1.48;;;;;;;;;;6271335;22;20043;-83
2023/03/13 09:48:54;;;;;;;9.77;1.67;;;;;;;;;;6301632;22;20066;-83
2023/03/13 09:51:29;;;;;;;5.32;1.60;;;;;;;;;;6298345;22;20478;-83
2023/03/13 09:53:59;;;;;;;8.55;1.50;;;;;;;;;;6296366;22;20081;-82
2023/03/13 09:56:30;;;;;;;4.72;1.42;;;;;;;;;;6299148;22;20027;-82
2023/03/13 09:59:22;;;;;;;5.57;1.88;;;;;;;;;;6299123;22;20787;-83
2023/03/13 10:01:50;;;;;;;7.25;1.58;;;;;;;;;;6274097;22;20533;-84
2023/03/13 10:04:31;;;;;;;6.80;1.48;;;;;;;;;;6297963;22;20490;-82
2023/03/13 10:06:57;;;;;;;3.85;1.48;;;;;;;;;;6298767;22;20028;-82
2023/03/13 10:09:27;;;;;;;4.78;1.30;;;;;;;;;;6298962;22;20020;-83
2023/03/13 10:12:06;;;;;;;6.15;1.30;;;;;;;;;;6298978;22;20515;-83
2023/03/13 10:14:42;;;;;;;8.38;1.40;;;;;;;;;;6299470;22;20027;-83
2023/03/13 10:17:08;;;;;;;4.80;1.02;;;;;;;;;;6272239;22;20054;-84
2023/03/13 10:19:36;;;;;;;4.38;1.20;;;;;;;;;;6300024;22;20054;-86
2023/03/13 10:22:13;;;;;;;3.28;1.13;;;;;;;;;;6299090;22;20428;-83
2023/03/13 10:24:53;;;;;;;4.57;1.05;;;;;;;;;;6298701;22;20024;-84
2023/03/13 10:27:20;;;;;;;4.60;1.40;;;;;;;;;;6301222;22;20030;-84
2023/03/13 10:29:46;;;;;;;4.50;1.27;;;;;;;;;;6299491;22;20038;-83
2023/03/13 10:32:14;;;;;;;5.78;1.40;;;;;;;;;;6298563;22;20019;-83
2023/03/13 10:34:57;;;;;;;5.18;1.25;;;;;;;;;;6298116;22;20027;-83
2023/03/13 10:37:23;;;;;;;5.05;1.38;;;;;;;;;;6298429;22;20070;-84
2023/03/13 10:39:50;;;;;;;5.85;1.42;;;;;;;;;;6298644;22;20031;-87
2023/03/13 10:42:22;;;;;;;5.70;1.30;;;;;;;;;;6271485;22;20794;-84
2023/03/13 10:44:54;;;;;;;4.80;1.15;;;;;;;;;;6300210;22;20479;-86
2023/03/13 10:47:20;;;;;;;6.75;1.35;;;;;;;;;;6272433;22;20028;-85
2023/03/13 10:49:51;;;;;;;5.50;1.50;;;;;;;;;;6299893;22;20547;-84
2023/03/13 10:52:41;;;;;;;6.68;1.10;;;;;;;;;;6273302;22;20019;-85
2023/03/13 10:55:12;;;;;;;6.55;1.60;;;;;;;;;;6289846;22;20038;-83
2023/03/13 10:57:41;;;;;;;5.18;1.23;;;;;;;;;;6299378;22;20067;-82
2023/03/13 11:00:31;;;;;;;4.80;1.30;;;;;;;;;;6301169;22;20015;-84
2023/03/13 11:02:57;;;;;;;10.20;1.70;;;;;;;;;;6266434;22;20495;-84
2023/03/13 11:05:30;;;;;;;6.53;1.20;;;;;;;;;;6273395;22;20062;-84
2023/03/13 11:07:56;;;;;;;6.47;1.00;;;;;;;;;;6300122;22;20024;-84
2023/03/13 11:10:24;;;;;;;6.35;1.20;;;;;;;;;;6298157;22;20028;-84
2023/03/13 11:12:54;;;;;;;7.20;1.50;;;;;;;;;;6300432;22;20070;-83
2023/03/13 11:15:23;;;;;;;5.93;1.13;;;;;;;;;;6301535;22;20071;-84
2023/03/13 11:17:54;;;;;;;6.97;1.30;;;;;;;;;;6300995;22;20024;-85
2023/03/13 11:20:23;;;;;;;4.90;1.20;;;;;;;;;;6300313;22;20786;-84
2023/03/13 11:22:50;;;;;;;5.47;1.25;;;;;;;;;;6272446;22;20038;-84
2023/03/13 11:25:21;;;;;;;4.05;1.10;;;;;;;;;;6300073;22;20139;-85
2023/03/13 11:27:54;;;;;;;6.55;1.45;;;;;;;;;;6272865;22;20051;-85
2023/03/13 11:30:21;;;;;;;3.78;1.05;;;;;;;;;;6300898;22;20028;-85
2023/03/13 11:32:55;;;;;;;5.70;1.10;;;;;;;;;;6272286;22;21160;-84
2023/03/13 11:35:47;;;;;;;5.10;1.02;;;;;;;;;;6299681;22;20072;-86
2023/03/13 11:38:31;;;;;;;5.82;1.00;;;;;;;;;;6275472;22;20024;-85
2023/03/13 11:41:16;;;;;;;5.70;1.13;;;;;;;;;;6301122;22;20027;-84
2023/03/13 11:43:45;;;;;;;5.20;1.20;;;;;;;;;;6273019;22;20039;-85
2023/03/13 11:46:11;;;;;;;4.25;1.20;;;;;;;;;;6299784;22;20059;-84
2023/03/13 11:48:53;;;;;;;8.13;1.25;;;;;;;;;;6274491;22;20023;-85
2023/03/13 11:51:32;;;;;;;4.90;1.10;;;;;;;;;;6302169;22;20024;-84
2023/03/13 11:54:17;;;;;;;5.03;1.20;;;;;;;;;;6271298;22;20030;-84
2023/03/13 11:57:11;;;;;;;3.33;1.10;;;;;;;;;;6301619;22;20034;-85
2023/03/13 12:00:09;;;;;;;5.97;1.35;;;;;;;;;;6298617;22;20011;-84
2023/03/13 12:02:38;;;;;;;6.03;1.30;;;;;;;;;;6275967;22;20034;-84
2023/03/13 12:05:09;;;;;;;8.05;1.40;;;;;;;;;;6273880;22;20519;-84
2023/03/13 12:07:40;;;;;;;7.22;1.55;;;;;;;;;;6302948;22;20066;-84
2023/03/13 12:10:06;;;;;;;7.22;1.23;;;;;;;;;;6300938;22;20809;-85
2023/03/13 12:12:43;;;;;;;6.40;1.08;;;;;;;;;;6303001;22;20024;-84
2023/03/13 12:15:12;;;;;;;6.40;1.40;;;;;;;;;;6301359;22;20020;-84
2023/03/13 12:17:41;;;;;;;6.35;1.20;;;;;;;;;;6297289;22;20028;-85
2023/03/13 12:20:13;;;;;;;5.20;1.10;;;;;;;;;;6274288;22;21212;-85
2023/03/13 12:22:43;;;;;;;8.77;1.23;;;;;;;;;;6301200;22;20046;-85
2023/03/13 12:25:20;;;;;;;8.63;1.35;;;;;;;;;;6300993;22;20024;-84
2023/03/13 12:27:48;;;;;;;8.27;1.55;;;;;;;;;;6300819;22;20027;-84
2023/03/13 12:30:30;;;;;;;6.10;1.02;;;;;;;;;;6301619;22;20024;-85
2023/03/13 12:33:15;;;;;;;11.73;1.40;;;;;;;;;;6300508;22;20039;-84
2023/03/13 12:35:44;;;;;;;10.82;1.40;;;;;;;;;;6300749;22;20028;-84
2023/03/13 12:38:16;;;;;;;11.05;1.67;;;;;;;;;;6274517;22;20106;-84
2023/03/13 12:40:48;;;;;;;6.10;1.25;;;;;;;;;;6301476;22;20467;-85
2023/03/13 12:43:19;;;;;;;7.80;1.50;;;;;;;;;;6299726;22;20023;-85
2023/03/13 12:45:53;;;;;;;5.38;1.13;;;;;;;;;;6275514;22;20024;-85
2023/03/13 12:48:38;;;;;;;5.30;1.40;;;;;;;;;;6301374;22;20073;-85
2023/03/13 12:51:20;;;;;;;9.63;1.85;;;;;;;;;;6274925;22;20023;-85
2023/03/13 12:54:08;;;;;;;9.85;1.52;;;;;;;;;;6299191;22;20074;-84
2023/03/13 12:56:35;;;;;;;10.27;1.50;;;;;;;;;;6301970;22;20027;-84
2023/03/13 12:59:22;;;;;;;8.20;1.40;;;;;;;;;;6301256;22;20051;-85
2023/03/13 13:01:50;;;;;;;9.23;1.60;;;;;;;;;;6274216;22;20073;-84
2023/03/13 13:04:17;;;;;;;7.85;1.55;;;;;;;;;;6299334;22;20019;-85
2023/03/13 13:06:56;;;;;;;7.95;1.52;;;;;;;;;;6273920;22;20535;-85
2023/03/13 13:09:24;;;;;;;8.80;1.50;;;;;;;;;;6274564;22;20067;-85
2023/03/13 13:11:53;;;;;;;8.60;1.77;;;;;;;;;;6274367;22;20020;-84
2023/03/13 13:14:20;;;;;;;8.95;1.35;;;;;;;;;;6272075;22;20031;-85
2023/03/13 13:16:49;;;;;;;5.95;1.02;;;;;;;;;;6299309;22;20027;-86
2023/03/13 13:19:39;;;;;;;9.00;1.58;;;;;;;;;;6298003;22;20432;-85
2023/03/13 13:22:24;;;;;;;6.55;1.50;;;;;;;;;;6300411;22;20024;-85
2023/03/13 13:24:50;;;;;;;10.23;1.50;;;;;;;;;;6298805;22;20030;-85
2023/03/13 13:27:33;;;;;;;8.02;1.50;;;;;;;;;;6300067;22;20102;-85
2023/03/13 13:30:00;;;;;;;5.75;1.40;;;;;;;;;;6272670;22;20036;-85
2023/03/13 13:32:37;;;;;;;6.30;1.40;;;;;;;;;;6301764;22;20019;-85
2023/03/13 13:35:10;;;;;;;8.85;1.58;;;;;;;;;;6299849;22;20591;-84
2023/03/13 13:37:37;;;;;;;6.18;1.70;;;;;;;;;;6303827;22;20118;-85
2023/03/13 13:40:22;;;;;;;9.35;1.60;;;;;;;;;;6303488;22;20030;-85
2023/03/13 13:42:53;;;;;;;8.23;2.30;;;;;;;;;;6298990;22;20028;-84
2023/03/13 13:45:26;;;;;;;11.75;1.98;;;;;;;;;;6299696;22;20024;-85
2023/03/13 13:48:11;;;;;;;8.00;2.00;;;;;;;;;;6299647;22;20019;-85
2023/03/13 13:50:37;;;;;;;9.68;1.67;;;;;;;;;;6300638;22;20028;-85
2023/03/13 13:53:27;;;;;;;10.32;1.92;;;;;;;;;;6299601;22;20479;-85
2023/03/13 13:55:53;;;;;;;12.18;1.63;;;;;;;;;;6300293;22;20059;-84
2023/03/13 13:58:22;;;;;;;9.43;1.60;;;;;;;;;;6273247;22;20067;-86
2023/03/13 14:00:58;;;;;;;11.15;1.90;;;;;;;;;;6301774;22;20794;-85
2023/03/13 14:03:25;;;;;;;11.07;1.80;;;;;;;;;;6303586;22;20032;-85
2023/03/13 14:05:53;;;;;;;14.10;2.40;;;;;;;;;;6300204;22;20085;-85
2023/03/13 14:08:23;;;;;;;12.02;2.05;;;;;;;;;;6298987;22;20893;-85
2023/03/13 14:10:55;;;;;;;12.18;2.30;;;;;;;;;;6299842;22;20126;-84
2023/03/13 14:13:23;;;;;;;13.75;2.63;;;;;;;;;;6298380;22;20093;-85
2023/03/13 14:15:53;;;;;;;12.60;2.22;;;;;;;;;;6300382;22;20024;-85
2023/03/13 14:18:23;;;;;;;15.07;2.17;;;;;;;;;;6271593;22;20034;-86
2023/03/13 14:20:51;;;;;;;16.25;2.13;;;;;;;;;;6299656;22;20140;-85
2023/03/13 14:23:33;;;;;;;15.30;2.70;;;;;;;;;;6298569;22;20035;-85
2023/03/13 14:26:14;;;;;;;12.02;2.20;;;;;;;;;;6299960;22;20012;-85
2023/03/13 14:28:42;;;;;;;12.70;2.35;;;;;;;;;;6274126;22;20423;-84
2023/03/13 14:31:10;;;;;;;12.57;1.90;;;;;;;;;;6275807;22;20031;-84
2023/03/13 14:33:37;;;;;;;9.70;2.00;;;;;;;;;;6300908;22;20024;-86
2023/03/13 14:36:04;;;;;;;15.95;2.40;;;;;;;;;;6303864;22;20020;-85
2023/03/13 14:38:31;;;;;;;12.73;2.25;;;;;;;;;;6273786;22;20024;-85
2023/03/13 14:40:58;;;;;;;11.13;2.05;;;;;;;;;;6274536;22;20107;-84
2023/03/13 14:43:32;;;;;;;13.77;2.67;;;;;;;;;;6273759;22;20031;-84
2023/03/13 14:45:59;;;;;;;12.82;2.30;;;;;;;;;;6301075;22;20628;-85
2023/03/13 14:48:30;;;;;;;9.40;1.95;;;;;;;;;;6274295;22;20019;-84